Time;durP1;ratioP1;P1;durP2;ratioP2;P2;SDS_P1;SDS_P2;PMS_P1;PMS_P2;Temp;Humidity;BMP_temperature;BMP_pressure;BME280_temperature;BME280_humidity;BME280_pressure;Samples;Min_cycle;Max_cycle;Signal;HPM_P1;HPM_P2
2022/09/16 00:00:56;;;;;;;2.72;0.47;;;;;;;-140.72;100.00;52715.53;5028005;28;20090;-67
2022/09/16 00:03:22;;;;;;;2.28;0.55;;;;;;;-140.72;100.00;52679.00;5027333;28;20037;-66
2022/09/16 00:05:50;;;;;;;3.70;0.52;;;;;;;-140.72;100.00;52658.72;5027603;28;20043;-67
2022/09/16 00:08:17;;;;;;;7.22;0.52;;;;;;;-140.72;100.00;52699.31;5028846;28;20103;-66
2022/09/16 00:10:43;;;;;;;1.40;0.50;;;;;;;-140.72;100.00;52731.75;5026205;28;20422;-66
2022/09/16 00:13:10;;;;;;;1.38;0.50;;;;;;;-140.72;100.00;52672.91;5026435;28;20047;-66
2022/09/16 00:15:35;;;;;;;0.73;0.40;;;;;;;-140.72;100.00;52634.38;5029456;28;20044;-66
2022/09/16 00:18:01;;;;;;;0.38;0.20;;;;;;;-140.72;100.00;52695.25;5026562;28;20025;-65
2022/09/16 00:20:26;;;;;;;1.45;0.47;;;;;;;-140.72;100.00;52695.25;5029560;28;20432;-67
2022/09/16 00:22:52;;;;;;;1.17;0.32;;;;;;;-140.72;100.00;52679.00;5027231;28;20393;-66
2022/09/16 00:25:17;;;;;;;4.63;0.55;;;;;;;-140.72;100.00;52630.31;5028882;28;20032;-66
2022/09/16 00:27:43;;;;;;;2.50;0.75;;;;;;;-140.72;100.00;52691.19;5029228;28;20025;-66
2022/09/16 00:30:08;;;;;;;1.63;0.63;;;;;;;-140.72;100.00;52662.78;5027459;28;20107;-67
2022/09/16 00:32:34;;;;;;;2.80;0.82;;;;;;;-140.72;100.00;52648.56;5028875;28;20064;-67
2022/09/16 00:34:59;;;;;;;2.58;0.85;;;;;;;-140.72;100.00;52674.94;5026218;28;20396;-64
2022/09/16 00:37:25;;;;;;;0.70;0.30;;;;;;;-140.72;100.00;52683.06;5027660;28;20425;-64
2022/09/16 00:39:51;;;;;;;1.17;0.35;;;;;;;-140.72;100.00;52689.16;5028109;28;20025;-64
2022/09/16 00:42:18;;;;;;;4.15;0.50;;;;;;;-140.72;100.00;52658.72;5025887;28;20810;-64
2022/09/16 00:44:54;;;;;;;0.30;0.30;;;;;;;-140.72;100.00;52648.56;5025558;28;20427;-64
2022/09/16 00:47:30;;;;;;;1.20;0.32;;;;;;;-140.72;100.00;52638.41;5025881;28;20098;-65
2022/09/16 00:50:01;;;;;;;1.90;0.30;;;;;;;-140.72;100.00;52687.13;5026473;28;20036;-64
2022/09/16 00:52:29;;;;;;;1.05;0.22;;;;;;;-140.72;100.00;52693.22;5026985;28;20079;-65
2022/09/16 00:54:55;;;;;;;0.52;0.30;;;;;;;-140.72;100.00;52681.03;5024774;28;20033;-64
2022/09/16 00:57:21;;;;;;;1.23;0.30;;;;;;;-140.72;100.00;52658.72;5026799;28;20087;-64
2022/09/16 00:59:53;;;;;;;1.48;0.30;;;;;;;-140.72;100.00;52644.50;5027100;28;20131;-64
2022/09/16 01:02:20;;;;;;;1.10;0.20;;;;;;;-140.72;100.00;52689.16;5027789;28;20037;-64
2022/09/16 01:05:00;;;;;;;0.45;0.20;;;;;;;-140.72;100.00;52709.44;5027210;28;20033;-63
2022/09/16 01:07:50;;;;;;;0.82;0.40;;;;;;;-140.72;100.00;52687.13;5026668;28;20116;-64
2022/09/16 01:10:19;;;;;;;0.70;0.40;;;;;;;-140.72;100.00;52687.13;5022926;28;20042;-64
2022/09/16 01:12:49;;;;;;;0.55;0.20;;;;;;;-140.72;100.00;52670.88;5027432;28;20053;-64
2022/09/16 01:15:16;;;;;;;0.65;0.20;;;;;;;-140.72;100.00;52676.97;5030238;28;20021;-64
2022/09/16 01:17:56;;;;;;;0.63;0.20;;;;;;;-140.72;100.00;52695.25;5026698;28;20039;-63
2022/09/16 01:20:30;;;;;;;0.32;0.10;;;;;;;-140.72;100.00;52693.22;5028084;28;20032;-64
2022/09/16 01:23:14;;;;;;;1.40;0.20;;;;;;;-140.72;100.00;52691.19;5025285;28;20091;-63
2022/09/16 01:25:57;;;;;;;0.40;0.25;;;;;;;-140.72;100.00;52687.13;5027776;28;20021;-64
2022/09/16 01:29:00;;;;;;;4.68;0.30;;;;;;;-140.72;100.00;52731.75;5026868;28;20034;-63
2022/09/16 01:31:37;;;;;;;1.48;0.57;;;;;;;-140.72;100.00;52705.38;5024922;28;20065;-61
2022/09/16 01:34:30;;;;;;;1.27;0.43;;;;;;;-140.72;100.00;52697.28;5023626;28;20029;-62
2022/09/16 01:37:08;;;;;;;0.63;0.35;;;;;;;-140.72;100.00;52691.19;5025046;28;20037;-62
2022/09/16 01:40:00;;;;;;;0.90;0.50;;;;;;;-140.72;100.00;52705.38;5023603;28;20061;-62
2022/09/16 01:42:46;;;;;;;0.45;0.10;;;;;;;-140.72;100.00;52705.38;5024763;28;20485;-62
2022/09/16 01:45:27;;;;;;;0.35;0.17;;;;;;;-140.72;100.00;52685.09;5009953;28;20116;-62
2022/09/16 01:47:59;;;;;;;0.90;0.30;;;;;;;-140.72;100.00;52693.22;5028632;28;20057;-62
2022/09/16 01:50:41;;;;;;;1.90;0.43;;;;;;;-140.72;100.00;52687.13;5030081;28;20033;-62
2022/09/16 01:53:24;;;;;;;0.25;0.25;;;;;;;-140.72;100.00;52723.66;5026623;28;20044;-62
2022/09/16 01:56:19;;;;;;;0.73;0.30;;;;;;;-140.72;100.00;52695.25;5028051;28;20152;-63
2022/09/16 01:59:02;;;;;;;0.45;0.20;;;;;;;-140.72;100.00;52731.75;5026977;28;20089;-63
2022/09/16 02:01:39;;;;;;;0.60;0.30;;;;;;;-140.72;100.00;52713.50;5027204;28;20056;-63
2022/09/16 02:04:12;;;;;;;0.20;0.10;;;;;;;-140.72;100.00;52727.72;5025394;28;20454;-63
2022/09/16 02:06:42;;;;;;;1.65;0.32;;;;;;;-140.72;100.00;52683.06;5026747;28;20512;-63
2022/09/16 02:09:21;;;;;;;2.47;0.28;;;;;;;-140.72;100.00;52725.69;5027236;28;20079;-63
2022/09/16 02:11:49;;;;;;;1.05;0.20;;;;;;;-140.72;100.00;52707.41;5025325;28;20030;-63
2022/09/16 02:14:23;;;;;;;0.35;0.20;;;;;;;-140.72;100.00;52748.00;5026853;28;20040;-65
2022/09/16 02:16:58;;;;;;;1.02;0.73;;;;;;;-140.72;100.00;52695.25;5031209;28;20034;-63
2022/09/16 02:19:36;;;;;;;0.30;0.30;;;;;;;-140.72;100.00;52709.44;5027634;28;20044;-62
2022/09/16 02:22:06;;;;;;;1.55;0.32;;;;;;;-140.72;100.00;52721.63;5030663;28;20021;-63
2022/09/16 02:24:32;;;;;;;;;;;;;;;-140.72;100.00;52687.13;5026127;28;20455;-64
2022/09/16 02:27:01;;;;;;;1.30;0.40;;;;;;;-140.72;100.00;52703.34;5030569;28;19920;-63
2022/09/16 02:29:33;;;;;;;1.35;0.35;;;;;;;-140.72;100.00;52741.91;5031355;28;20029;-63
2022/09/16 02:32:02;;;;;;;2.83;0.45;;;;;;;-140.72;100.00;52725.69;5029007;28;20022;-63
2022/09/16 02:34:41;;;;;;;1.38;0.82;;;;;;;-140.72;100.00;52691.19;5010835;28;20537;-63
2022/09/16 02:37:13;;;;;;;2.78;0.40;;;;;;;-140.72;100.00;52719.59;5022678;28;20053;-63
2022/09/16 02:39:43;;;;;;;1.70;0.43;;;;;;;-140.72;100.00;52689.16;5023578;28;20033;-62
2022/09/16 02:42:09;;;;;;;0.85;0.50;;;;;;;-140.72;100.00;52683.06;5026871;28;20115;-63
2022/09/16 02:44:35;;;;;;;2.63;0.38;;;;;;;-140.72;100.00;52679.00;5027443;28;20030;-62
2022/09/16 02:47:30;;;;;;;3.63;0.55;;;;;;;-140.72;100.00;52697.28;5027828;28;20226;-63
2022/09/16 02:50:07;;;;;;;1.02;0.20;;;;;;;-140.72;100.00;52723.66;5027984;28;20029;-62
2022/09/16 02:52:45;;;;;;;1.60;0.82;;;;;;;-140.72;100.00;52691.19;5027318;28;20432;-62
2022/09/16 02:55:21;;;;;;;0.30;0.25;;;;;;;-140.72;100.00;52674.94;5026836;28;20095;-63
2022/09/16 02:57:48;;;;;;;0.20;0.20;;;;;;;-140.72;100.00;52699.31;5028353;28;20500;-63
2022/09/16 03:00:14;;;;;;;0.73;0.28;;;;;;;-140.72;100.00;52739.88;5028730;28;20049;-64
2022/09/16 03:02:39;;;;;;;0.47;0.30;;;;;;;-140.72;100.00;52723.66;5027663;28;20033;-63
2022/09/16 03:05:05;;;;;;;0.47;0.20;;;;;;;-140.72;100.00;52741.91;5028838;28;20035;-63
2022/09/16 03:07:30;;;;;;;1.02;0.50;;;;;;;-140.72;100.00;52679.00;5028335;28;20140;-63
2022/09/16 03:09:56;;;;;;;1.25;0.43;;;;;;;-140.72;100.00;52739.88;5029114;28;20121;-63
2022/09/16 03:12:30;;;;;;;0.85;0.30;;;;;;;-140.72;100.00;52721.63;5028618;28;20437;-64
2022/09/16 03:15:17;;;;;;;1.65;0.38;;;;;;;-140.72;100.00;52697.28;5029289;28;20037;-64
2022/09/16 03:17:48;;;;;;;0.90;0.30;;;;;;;-140.72;100.00;52693.22;5030469;28;20541;-63
2022/09/16 03:20:35;;;;;;;4.80;0.40;;;;;;;-140.72;100.00;52739.88;5027540;28;20027;-63
2022/09/16 03:23:17;;;;;;;0.20;0.10;;;;;;;-140.72;100.00;52699.31;5029796;28;20114;-64
2022/09/16 03:25:51;;;;;;;0.17;0.10;;;;;;;-140.72;100.00;52748.00;5027709;28;20028;-63
2022/09/16 03:28:37;;;;;;;1.73;0.38;;;;;;;-140.72;100.00;52693.22;5029011;28;20029;-64
2022/09/16 03:31:30;;;;;;;2.50;0.70;;;;;;;-140.72;100.00;52715.53;5026893;28;20107;-63
2022/09/16 03:34:08;;;;;;;1.48;0.40;;;;;;;-140.72;100.00;52695.25;5025854;28;20021;-63
2022/09/16 03:36:39;;;;;;;1.05;0.28;;;;;;;-140.72;100.00;52697.28;5025169;28;20056;-64
2022/09/16 03:39:05;;;;;;;0.73;0.40;;;;;;;-140.72;100.00;52731.75;5027722;28;20385;-63
2022/09/16 03:41:32;;;;;;;0.10;0.10;;;;;;;-140.72;100.00;52739.88;5027683;28;20049;-64
2022/09/16 03:43:59;;;;;;;0.63;0.25;;;;;;;-140.72;100.00;52737.84;5027017;28;20030;-63
2022/09/16 03:46:27;;;;;;;1.25;0.30;;;;;;;-140.72;100.00;52752.06;5027970;28;20025;-63
2022/09/16 03:48:53;;;;;;;0.77;0.40;;;;;;;-140.72;100.00;52711.47;5028200;28;20036;-64
2022/09/16 03:51:19;;;;;;;0.10;0.10;;;;;;;-140.72;100.00;52739.88;5027186;28;20029;-65
2022/09/16 03:53:44;;;;;;;2.08;0.25;;;;;;;-140.72;100.00;52709.44;5028891;28;20022;-63
2022/09/16 03:56:09;;;;;;;0.43;0.30;;;;;;;-140.72;100.00;52717.56;5028150;28;20052;-64
2022/09/16 03:58:35;;;;;;;0.40;0.20;;;;;;;-140.72;100.00;52762.22;5028126;28;20037;-63
2022/09/16 04:01:01;;;;;;;0.43;0.20;;;;;;;-140.72;100.00;52739.88;5028056;28;20044;-63
2022/09/16 04:03:26;;;;;;;0.43;0.20;;;;;;;-140.72;100.00;52745.97;5029074;28;20424;-62
2022/09/16 04:05:55;;;;;;;0.63;0.30;;;;;;;-140.72;100.00;52743.94;5030523;28;20385;-63
2022/09/16 04:08:21;;;;;;;2.20;0.57;;;;;;;-140.72;100.00;52748.00;5029991;28;20046;-63
2022/09/16 04:10:58;;;;;;;0.57;0.30;;;;;;;-140.72;100.00;52715.53;5027358;28;20045;-63
2022/09/16 04:13:24;;;;;;;0.10;0.10;;;;;;;-140.72;100.00;52756.13;5026904;28;20548;-63
2022/09/16 04:15:49;;;;;;;0.20;0.20;;;;;;;-140.72;100.00;52745.97;5028311;28;20121;-62
2022/09/16 04:18:15;;;;;;;0.63;0.30;;;;;;;-140.72;100.00;52743.94;5027261;28;20398;-63
2022/09/16 04:20:41;;;;;;;0.57;0.22;;;;;;;-140.72;100.00;52721.63;5027633;28;20090;-63
2022/09/16 04:23:07;;;;;;;0.30;0.10;;;;;;;-140.72;100.00;52717.56;5026722;28;20036;-62
2022/09/16 04:25:32;;;;;;;0.20;0.20;;;;;;;-140.72;100.00;52693.22;5026662;28;20133;-62
2022/09/16 04:27:58;;;;;;;0.40;0.17;;;;;;;-140.72;100.00;52683.06;5028476;28;20588;-62
2022/09/16 04:30:24;;;;;;;1.00;0.40;;;;;;;-140.72;100.00;52752.06;5027265;28;20029;-62
2022/09/16 04:32:54;;;;;;;0.68;0.13;;;;;;;-140.72;100.00;52723.66;5026294;28;20052;-62
2022/09/16 04:35:20;;;;;;;1.08;0.28;;;;;;;-140.72;100.00;52735.81;5025521;28;20410;-63
2022/09/16 04:37:45;;;;;;;0.52;0.20;;;;;;;-140.72;100.00;52725.69;5026356;28;20072;-63
2022/09/16 04:40:11;;;;;;;0.60;0.30;;;;;;;-140.72;100.00;52727.72;5024805;28;20413;-62
2022/09/16 04:42:37;;;;;;;0.50;0.20;;;;;;;-140.72;100.00;52723.66;5030673;28;20385;-63
2022/09/16 04:45:03;;;;;;;0.52;0.20;;;;;;;-140.72;100.00;52725.69;5027444;28;20029;-64
2022/09/16 04:47:28;;;;;;;0.52;0.32;;;;;;;-140.72;100.00;52737.84;5026980;28;20041;-62
2022/09/16 04:49:54;;;;;;;1.05;0.30;;;;;;;-140.72;100.00;52705.38;5027669;28;20037;-62
2022/09/16 04:52:19;;;;;;;2.60;0.45;;;;;;;-140.72;100.00;52756.13;5029253;28;20037;-62
2022/09/16 04:54:45;;;;;;;0.50;0.30;;;;;;;-140.72;100.00;52741.91;5027220;28;20018;-62
2022/09/16 04:57:10;;;;;;;0.25;0.20;;;;;;;-140.72;100.00;52715.53;5025996;28;20064;-63
2022/09/16 04:59:35;;;;;;;0.10;0.10;;;;;;;-140.72;100.00;52715.53;5028597;28;20029;-63
2022/09/16 05:02:01;;;;;;;1.63;0.45;;;;;;;-140.72;100.00;52748.00;5026243;28;20112;-62
2022/09/16 05:04:26;;;;;;;0.20;0.20;;;;;;;-140.72;100.00;52715.53;5026648;28;20032;-63
2022/09/16 05:06:52;;;;;;;0.47;0.28;;;;;;;-140.72;100.00;52729.75;5026581;28;20441;-63
2022/09/16 05:09:17;;;;;;;2.42;0.70;;;;;;;-140.72;100.00;52756.13;5026263;28;20167;-64
2022/09/16 05:11:43;;;;;;;2.58;0.47;;;;;;;-140.72;100.00;52752.06;5026100;28;20033;-64
2022/09/16 05:14:17;;;;;;;0.30;0.20;;;;;;;-140.72;100.00;52748.00;5026322;28;20021;-63
2022/09/16 05:16:43;;;;;;;2.75;0.43;;;;;;;-140.72;100.00;52743.94;5024366;28;20034;-63
2022/09/16 05:19:11;;;;;;;0.50;0.20;;;;;;;-140.72;100.00;52760.19;5027737;28;20386;-63
2022/09/16 05:21:37;;;;;;;0.57;0.32;;;;;;;-140.72;100.00;52739.88;5026501;28;20080;-64
2022/09/16 05:24:07;;;;;;;2.40;0.63;;;;;;;-140.72;100.00;52733.78;5025740;28;20026;-63
2022/09/16 05:26:34;;;;;;;1.45;0.50;;;;;;;-140.72;100.00;52715.53;5026451;28;20083;-63
2022/09/16 05:29:07;;;;;;;1.98;0.90;;;;;;;-140.72;100.00;52709.44;5025634;28;20512;-64
2022/09/16 05:31:38;;;;;;;5.55;0.73;;;;;;;-140.72;100.00;52729.75;5025379;28;20453;-64
2022/09/16 05:34:06;;;;;;;1.52;0.88;;;;;;;-140.72;100.00;52745.97;5023499;28;20393;-64
2022/09/16 05:36:34;;;;;;;0.47;0.30;;;;;;;-140.72;100.00;52780.47;5035715;28;20014;-63
2022/09/16 05:39:00;;;;;;;0.35;0.25;;;;;;;-140.72;100.00;52768.28;5030663;28;20497;-64
2022/09/16 05:41:26;;;;;;;2.67;0.45;;;;;;;-140.72;100.00;52741.91;5031442;28;20051;-64
2022/09/16 05:43:51;;;;;;;0.32;0.30;;;;;;;-140.72;100.00;52731.75;5027616;28;20034;-64
2022/09/16 05:46:19;;;;;;;4.15;0.85;;;;;;;-140.72;100.00;52731.75;5028913;28;20025;-64
2022/09/16 05:48:46;;;;;;;2.22;1.02;;;;;;;-140.72;100.00;52745.97;5028925;28;20034;-65
2022/09/16 05:51:14;;;;;;;0.93;0.30;;;;;;;-140.72;100.00;52709.44;5029008;28;20079;-63
2022/09/16 05:53:39;;;;;;;2.20;0.70;;;;;;;-140.72;100.00;52754.09;5040120;28;20312;-64
2022/09/16 05:56:07;;;;;;;3.05;1.33;;;;;;;-140.72;100.00;52676.97;5028661;28;20104;-64
2022/09/16 05:58:34;;;;;;;1.75;0.40;;;;;;;-140.72;100.00;52676.97;5028328;28;20053;-64
2022/09/16 06:01:02;;;;;;;5.35;0.95;;;;;;;-140.72;100.00;52679.00;5030872;28;20025;-64
2022/09/16 06:03:28;;;;;;;1.42;0.55;;;;;;;-140.72;100.00;52699.31;5037760;28;20029;-64
2022/09/16 06:06:03;;;;;;;1.63;0.40;;;;;;;-140.72;100.00;52735.81;5027756;28;20025;-64
2022/09/16 06:08:30;;;;;;;3.42;0.40;;;;;;;-140.72;100.00;52725.69;5028848;28;20104;-63
2022/09/16 06:10:56;;;;;;;3.67;0.85;;;;;;;-140.72;100.00;52681.03;5028283;28;20037;-63
2022/09/16 06:13:21;;;;;;;3.47;0.40;;;;;;;-140.72;100.00;52723.66;5034964;28;20477;-63
2022/09/16 06:15:53;;;;;;;0.55;0.50;;;;;;;-140.72;100.00;52743.94;5028873;28;20104;-63
2022/09/16 06:18:18;;;;;;;1.35;0.20;;;;;;;-140.72;100.00;52717.56;5031768;28;20033;-63
2022/09/16 06:20:44;;;;;;;3.35;0.47;;;;;;;-140.72;100.00;52739.88;5030054;28;20025;-64
2022/09/16 06:23:10;;;;;;;3.30;0.30;;;;;;;-140.72;100.00;52752.06;5032710;28;20018;-64
2022/09/16 06:25:35;;;;;;;0.10;0.10;;;;;;;-140.72;100.00;52739.88;5028458;28;20470;-64
2022/09/16 06:28:02;;;;;;;0.65;0.20;;;;;;;-140.72;100.00;52760.19;5028679;28;20026;-64
2022/09/16 06:30:28;;;;;;;0.20;0.10;;;;;;;-140.72;100.00;52748.00;5028578;28;20080;-64
2022/09/16 06:32:53;;;;;;;0.47;0.28;;;;;;;-140.72;100.00;52760.19;5028158;28;20018;-66
2022/09/16 06:35:18;;;;;;;0.68;0.30;;;;;;;-140.72;100.00;52788.59;5030146;28;20166;-65
2022/09/16 06:37:44;;;;;;;0.90;0.40;;;;;;;-140.72;100.00;52743.94;5037815;28;20032;-65
2022/09/16 06:40:09;;;;;;;1.83;0.50;;;;;;;-140.72;100.00;52743.94;5032289;28;20036;-64
2022/09/16 06:42:35;;;;;;;1.20;0.50;;;;;;;-140.72;100.00;52768.28;5032578;28;20028;-66
2022/09/16 06:45:03;;;;;;;1.67;0.20;;;;;;;-140.72;100.00;52735.81;5032934;28;20481;-65
2022/09/16 06:47:32;;;;;;;1.80;0.50;;;;;;;-140.72;100.00;52729.75;5031416;28;20045;-65
2022/09/16 06:49:58;;;;;;;1.00;0.52;;;;;;;-140.72;100.00;52782.50;5032548;28;20036;-66
2022/09/16 06:52:23;;;;;;;3.95;0.40;;;;;;;-140.72;100.00;52748.00;5036852;28;20033;-66
2022/09/16 06:54:49;;;;;;;2.85;0.30;;;;;;;-140.72;100.00;52762.22;5031454;28;20442;-65
2022/09/16 06:57:15;;;;;;;0.85;0.55;;;;;;;-140.72;100.00;52764.25;5032200;28;20076;-65
2022/09/16 06:59:40;;;;;;;0.60;0.20;;;;;;;-140.72;100.00;52731.75;5031689;28;20026;-65
2022/09/16 07:02:07;;;;;;;5.10;0.60;;;;;;;-140.72;100.00;52711.47;5030991;28;20524;-65
2022/09/16 07:04:34;;;;;;;1.30;0.50;;;;;;;-140.72;100.00;52733.78;5031442;28;20064;-65
2022/09/16 07:06:59;;;;;;;3.58;0.60;;;;;;;-140.72;100.00;52707.41;5031615;28;20049;-65
2022/09/16 07:09:25;;;;;;;4.97;0.25;;;;;;;-140.72;100.00;52723.66;5032356;28;20060;-65
2022/09/16 07:11:50;;;;;;;3.20;0.30;;;;;;;-140.72;100.00;52727.72;5032378;28;20030;-65
2022/09/16 07:14:15;;;;;;;0.50;0.25;;;;;;;-140.72;100.00;52723.66;5036497;28;20029;-65
2022/09/16 07:16:41;;;;;;;0.50;0.30;;;;;;;-140.72;100.00;52697.28;5040243;28;20091;-66
2022/09/16 07:19:06;;;;;;;1.75;0.57;;;;;;;-140.72;100.00;52664.81;5031835;28;20477;-64
2022/09/16 07:21:32;;;;;;;5.32;0.52;;;;;;;-140.72;100.00;52664.81;5030939;28;20508;-65
2022/09/16 07:23:59;;;;;;;0.73;0.20;;;;;;;-140.72;100.00;52679.00;5031502;28;20100;-65
2022/09/16 07:26:27;;;;;;;0.50;0.30;;;;;;;-140.72;100.00;52646.53;5031574;28;20523;-64
2022/09/16 07:28:54;;;;;;;3.83;0.60;;;;;;;-140.72;100.00;52644.50;5030107;28;20032;-65
2022/09/16 07:31:25;;;;;;;2.03;0.30;;;;;;;-140.72;100.00;52676.97;5031182;28;20029;-64
2022/09/16 07:33:53;;;;;;;2.38;0.50;;;;;;;-140.72;100.00;52679.00;5019952;28;20045;-65
2022/09/16 07:36:21;;;;;;;5.75;0.55;;;;;;;-140.72;100.00;52693.22;5031875;28;20461;-64
2022/09/16 07:38:47;;;;;;;1.02;0.55;;;;;;;-140.72;100.00;52695.25;5043089;28;20143;-64
2022/09/16 07:41:18;;;;;;;0.63;0.30;;;;;;;-140.72;100.00;52666.84;5032368;28;20079;-64
2022/09/16 07:43:44;;;;;;;0.60;0.17;;;;;;;-140.72;100.00;52697.28;5037825;28;20116;-63
2022/09/16 07:46:12;;;;;;;1.10;0.40;;;;;;;-140.72;100.00;52691.19;5036590;28;20029;-64
2022/09/16 07:48:38;;;;;;;0.20;0.20;;;;;;;-140.72;100.00;52689.16;5029452;28;20359;-63
2022/09/16 07:51:07;;;;;;;0.77;0.43;;;;;;;-140.72;100.00;52687.13;5030689;28;20424;-64
2022/09/16 07:53:33;;;;;;;0.60;0.25;;;;;;;-140.72;100.00;52668.84;5044088;28;20112;-63
2022/09/16 07:56:11;;;;;;;0.75;0.57;;;;;;;-140.72;100.00;52725.69;5031359;28;20508;-63
2022/09/16 07:58:38;;;;;;;0.63;0.25;;;;;;;-140.72;100.00;52695.25;5031234;28;20063;-64
2022/09/16 08:01:05;;;;;;;2.63;0.55;;;;;;;-140.72;100.00;52701.31;5031142;28;20159;-63
2022/09/16 08:03:32;;;;;;;0.30;0.20;;;;;;;-140.72;100.00;52703.34;5030884;28;20045;-64
2022/09/16 08:06:00;;;;;;;1.30;0.40;;;;;;;-140.72;100.00;52672.91;5031391;28;20474;-63
2022/09/16 08:08:30;;;;;;;0.75;0.45;;;;;;;-140.72;100.00;52691.19;5030843;28;20405;-64
2022/09/16 08:10:57;;;;;;;2.38;0.70;;;;;;;-140.72;100.00;52713.50;5030332;28;20385;-64
2022/09/16 08:13:23;;;;;;;1.98;0.45;;;;;;;-140.72;100.00;52679.00;5043026;28;20393;-62
2022/09/16 08:15:49;;;;;;;0.55;0.17;;;;;;;-140.72;100.00;52638.41;5031954;28;20034;-62
2022/09/16 08:18:14;;;;;;;1.35;0.20;;;;;;;-140.72;100.00;52654.66;5030088;28;20638;-65
2022/09/16 08:20:40;;;;;;;4.53;0.75;;;;;;;-140.72;100.00;52626.25;5031077;28;20324;-61
2022/09/16 08:23:08;;;;;;;2.33;0.90;;;;;;;-140.72;100.00;52666.84;5031384;28;20480;-64
2022/09/16 08:25:35;;;;;;;0.80;0.43;;;;;;;-140.72;100.00;52656.69;5030411;28;20603;-64
2022/09/16 08:28:01;;;;;;;5.70;0.43;;;;;;;-140.72;100.00;52654.66;5030773;28;20057;-64
2022/09/16 08:30:27;;;;;;;2.90;0.45;;;;;;;-140.72;100.00;52662.78;5030742;28;20108;-64
2022/09/16 08:32:59;;;;;;;1.40;0.25;;;;;;;-140.72;100.00;52715.53;5029902;28;20116;-64
2022/09/16 08:35:24;;;;;;;1.80;0.47;;;;;;;-140.72;100.00;52691.19;5030468;28;20474;-65
2022/09/16 08:37:50;;;;;;;1.83;0.35;;;;;;;-140.72;100.00;52709.44;5030331;28;20029;-64
2022/09/16 08:40:22;;;;;;;2.70;0.10;;;;;;;-140.72;100.00;52693.22;5030286;28;20029;-63
2022/09/16 08:43:03;;;;;;;0.38;0.20;;;;;;;-140.72;100.00;52681.03;5030575;28;20052;-63
2022/09/16 08:45:59;;;;;;;1.48;0.57;;;;;;;-140.72;100.00;52676.97;5029449;28;20044;-64
2022/09/16 08:48:47;;;;;;;1.90;0.20;;;;;;;-140.72;100.00;52640.44;5030542;28;20037;-63
2022/09/16 08:51:20;;;;;;;2.25;0.52;;;;;;;-140.72;100.00;52668.84;5029468;28;20493;-63
2022/09/16 08:53:58;;;;;;;3.03;0.68;;;;;;;-140.72;100.00;52628.28;5030046;28;20120;-64
2022/09/16 08:56:28;;;;;;;4.13;0.38;;;;;;;-140.72;100.00;52654.66;5029877;28;20072;-64
2022/09/16 08:58:56;;;;;;;3.90;1.40;;;;;;;-140.72;100.00;52601.91;5029860;28;20033;-64
2022/09/16 09:01:40;;;;;;;0.38;0.20;;;;;;;-140.72;100.00;52571.47;5029095;28;20022;-63
2022/09/16 09:04:06;;;;;;;1.95;0.40;;;;;;;-140.72;100.00;52614.06;5029938;28;20120;-64
2022/09/16 09:06:40;;;;;;;0.63;0.20;;;;;;;-140.72;100.00;52640.44;5029643;28;20108;-62
2022/09/16 09:09:30;;;;;;;2.45;0.50;;;;;;;-140.72;100.00;52638.41;5032505;28;20303;-63
2022/09/16 09:12:04;;;;;;;1.65;0.43;;;;;;;-140.72;100.00;52646.53;5036876;28;20061;-62
2022/09/16 09:14:51;;;;;;;2.67;0.40;;;;;;;-140.72;100.00;52695.25;5024636;28;20124;-63
2022/09/16 09:17:39;;;;;;;3.47;0.50;;;;;;;-140.72;100.00;52691.19;5035141;28;20025;-63
2022/09/16 09:20:11;;;;;;;1.65;0.80;;;;;;;-140.72;100.00;52662.78;5031968;28;20041;-64
2022/09/16 09:22:55;;;;;;;2.22;0.77;;;;;;;-140.72;100.00;52640.44;5029535;28;20608;-63
2022/09/16 09:25:39;;;;;;;3.50;0.50;;;;;;;-140.72;100.00;52622.19;5041861;28;20082;-63
2022/09/16 09:28:23;;;;;;;3.42;0.35;;;;;;;-140.72;100.00;52662.78;5029377;28;20377;-63
2022/09/16 09:31:13;;;;;;;4.32;0.25;;;;;;;-140.72;100.00;52648.56;5019042;28;20064;-63
2022/09/16 09:33:58;;;;;;;1.08;0.35;;;;;;;-140.72;100.00;52626.25;5028426;28;20041;-63
2022/09/16 09:36:51;;;;;;;1.27;0.50;;;;;;;-140.72;100.00;52630.31;5041297;28;20051;-63
2022/09/16 09:39:19;;;;;;;5.25;0.63;;;;;;;-140.72;100.00;52607.97;5042093;28;20037;-64
2022/09/16 09:42:10;;;;;;;2.45;0.32;;;;;;;-140.72;100.00;52646.53;5029082;28;20527;-62
2022/09/16 09:45:00;;;;;;;3.10;0.40;;;;;;;-140.72;100.00;52666.84;5032209;28;20048;-63
2022/09/16 09:48:01;;;;;;;0.82;0.38;;;;;;;-140.72;100.00;52681.03;5032524;28;20022;-63
2022/09/16 09:50:39;;;;;;;3.55;0.52;;;;;;;-140.72;100.00;52658.72;5018855;28;20056;-62
2022/09/16 09:53:27;;;;;;;1.60;0.73;;;;;;;-140.72;100.00;52652.63;5034730;28;20104;-63
2022/09/16 09:56:15;;;;;;;2.15;0.55;;;;;;;-140.72;100.00;52646.53;5029044;28;20036;-63
2022/09/16 09:58:55;;;;;;;2.03;0.57;;;;;;;-140.72;100.00;52689.16;5024385;28;20041;-63
2022/09/16 10:01:20;;;;;;;1.27;0.40;;;;;;;-140.72;100.00;52674.94;5029095;28;20018;-64
2022/09/16 10:03:49;;;;;;;0.57;0.30;;;;;;;-140.72;100.00;52630.31;5028273;28;20028;-63
2022/09/16 10:06:20;;;;;;;3.05;0.38;;;;;;;-140.72;100.00;52646.53;5038238;28;20022;-63
2022/09/16 10:08:49;;;;;;;0.82;0.15;;;;;;;-140.72;100.00;52563.34;5028882;28;20033;-64
2022/09/16 10:11:27;;;;;;;5.87;0.47;;;;;;;-140.72;100.00;52541.03;5031916;28;20029;-64
2022/09/16 10:13:59;;;;;;;2.92;0.30;;;;;;;-140.72;100.00;52520.72;5032896;28;20045;-64
2022/09/16 10:16:31;;;;;;;1.27;0.40;;;;;;;-140.72;100.00;52607.97;5032998;28;20018;-61
2022/09/16 10:19:24;;;;;;;0.93;0.40;;;;;;;-140.72;100.00;52589.72;5044230;28;20043;-62
2022/09/16 10:21:52;;;;;;;1.38;0.25;;;;;;;-140.72;100.00;52630.31;5041998;28;20029;-61
2022/09/16 10:24:26;;;;;;;0.90;0.22;;;;;;;-140.72;100.00;52687.13;5040057;28;20036;-62
2022/09/16 10:26:52;;;;;;;0.20;0.13;;;;;;;-140.72;100.00;52685.09;5032713;28;20052;-62
2022/09/16 10:29:21;;;;;;;3.25;0.70;;;;;;;-140.72;100.00;52707.41;5032788;28;20674;-64
2022/09/16 10:31:47;;;;;;;2.42;0.50;;;;;;;-140.72;100.00;52695.25;5040471;28;20024;-63
2022/09/16 10:34:22;;;;;;;3.30;0.55;;;;;;;-140.72;100.00;52689.16;5032663;28;20645;-63
2022/09/16 10:37:03;;;;;;;1.48;0.30;;;;;;;-140.72;100.00;52693.22;5032944;28;20112;-63
2022/09/16 10:39:30;;;;;;;1.80;0.30;;;;;;;-140.72;100.00;52668.84;5031806;28;20076;-63
2022/09/16 10:41:55;;;;;;;6.60;0.60;;;;;;;-140.72;100.00;52666.84;5047719;28;20029;-63
2022/09/16 10:44:24;;;;;;;1.23;0.40;;;;;;;-140.72;100.00;52624.22;5032821;28;20052;-63
2022/09/16 10:47:23;;;;;;;1.45;0.20;;;;;;;-140.72;100.00;52605.94;5032199;28;20052;-63
2022/09/16 10:49:52;;;;;;;5.53;0.52;;;;;;;-140.72;100.00;52480.16;5030462;28;20049;-64
2022/09/16 10:52:22;;;;;;;0.82;0.20;;;;;;;-140.72;100.00;52476.09;5037164;28;20497;-63
2022/09/16 10:54:48;;;;;;;0.90;0.30;;;;;;;-140.72;100.00;52415.22;5035664;28;20021;-63
2022/09/16 10:57:30;;;;;;;0.50;0.20;;;;;;;-140.72;100.00;52370.56;5041504;28;20052;-65
2022/09/16 11:00:14;;;;;;;0.68;0.20;;;;;;;-140.72;100.00;52352.31;5037766;28;20079;-66
2022/09/16 11:02:54;;;;;;;1.35;0.38;;;;;;;-140.72;100.00;52317.81;5036209;28;20922;-64
2022/09/16 11:05:38;;;;;;;1.85;0.43;;;;;;;-140.72;100.00;52269.13;5032428;28;20029;-65
2022/09/16 11:08:19;;;;;;;0.43;0.10;;;;;;;-140.72;100.00;52301.59;5027124;28;20527;-67
2022/09/16 11:10:57;;;;;;;0.85;0.20;;;;;;;-140.72;100.00;52258.97;5035666;28;20125;-64
2022/09/16 11:13:26;;;;;;;0.93;0.38;;;;;;;-140.72;0.00;52240.72;5031682;28;20049;-64
2022/09/16 11:16:17;;;;;;;1.40;0.28;;;;;;;-140.72;0.00;52256.94;5032258;28;20065;-63
2022/09/16 11:19:08;;;;;;;1.65;0.28;;;;;;;-140.72;0.00;52405.06;5032312;28;20491;-63
2022/09/16 11:21:54;;;;;;;2.60;0.28;;;;;;;-140.72;0.00;52313.75;5030334;28;20029;-63
2022/09/16 11:24:51;;;;;;;0.63;0.20;;;;;;;-140.72;0.00;52244.78;5021232;28;20026;-64
2022/09/16 11:27:38;;;;;;;1.02;0.30;;;;;;;-140.72;0.00;52279.25;5031236;28;20025;-64
2022/09/16 11:30:16;;;;;;;1.33;0.28;;;;;;;-140.72;0.00;52411.16;5031816;28;20033;-65